Kezdőlap
Műholdfelvétel 15-napos időjárásÉghajlatTengeri időjárás Ciklonok Villám RepülőtérGYIK Újdonságok Néhány szó
Időjárás : Európa Afrika Észak-Amerika Dél-Amerika Ázsia Ausztrália-Óceánia Más
Nyelveken Kontakt

Budapest, Magyarország

Ferihegy

Földrajzi szélesség: 47-26N, Földrajzi hosszúság: 019-16E, Magasság: 151 m


METAR: LHBP 030200Z 30008KT CAVOK 17/15 Q1012 NOSIG
short-TAF: kívül időpont (51075 órával)
long-TAF: LHBP 021700Z 0218/0318 32010KT CAVOK BECMG 0306/0309 02012KT TEMPO 0308/0312 SCT040 SCT090

Óra: 04:03 (02:03 UTC)

Jellemzõ

A jelentés 3 perccel ezelõtt készült, 02:00 UTC  
Szél 08 kt iránya Nyugat/Északnyugat
Hőmérséklet 17°C
páratartalom 88%
A légköri nyomás 1012 hPa
láthatóság 10 km vagy több
nincsenek felhõk 1500 m magasságban, és nincs gomolyfelhõ

Mértékegység

Előrejelzés

A jelentés 8 órával és 57 perccel ezelõtt készült, 17:06 UTC  
Előrejelzés 02 -én 18 UTC és 03 -én 18 UTC
Szél 10 kt iránya Északnyugat
láthatóság 10 km vagy több
nincsenek felhõk 1500 m magasságban, és nincs gomolyfelhõ
Valamivé változó
  03 -én 06 UTC és 03 -én 09 UTC
Szél 12 kt iránya Észak/Északkelet
Időnként
  03 -én 08 UTC és 03 -én 12 UTC
szórványos felhõ 4000 ft
szórványos felhõ 9000 ft
Az ezen az oldalon található információk a felelősségi nyilatkozat
Időjárás : Európa Afrika Észak-Amerika Dél-Amerika Ázsia Ausztrália-Óceánia Más
Műholdfelvétel 15-napos időjárásÉghajlatTengeri időjárás Ciklonok Villám RepülőtérGYIK Nyelveken Kontakt Újdonságok Néhány szó